createdAt,value
2018-01-20T00:00:49.475Z,3.36
2018-01-20T00:01:51.866Z,3.24
2018-01-20T00:02:54.153Z,3.27
2018-01-20T00:03:56.110Z,3.12
2018-01-20T00:04:58.315Z,3.15
2018-01-20T00:06:00.447Z,3.15
2018-01-20T00:07:02.641Z,3.12
2018-01-20T00:08:04.688Z,3.33
2018-01-20T00:09:06.657Z,3.28
2018-01-20T00:10:08.884Z,3.28
2018-01-20T00:11:10.929Z,3.27
2018-01-20T00:12:13.333Z,3.30
2018-01-20T00:13:15.579Z,3.18
2018-01-20T00:14:17.570Z,3.21
2018-01-20T00:15:19.599Z,3.18
2018-01-20T00:16:21.657Z,3.25
2018-01-20T00:17:23.610Z,3.13
2018-01-20T00:18:25.034Z,3.16
2018-01-20T00:21:07.955Z,3.09
2018-01-20T00:22:09.364Z,3.02
2018-01-20T00:23:10.780Z,3.12
2018-01-20T00:24:12.204Z,3.24
2018-01-20T00:25:13.616Z,3.16
2018-01-20T00:26:15.024Z,3.21
2018-01-20T00:27:16.437Z,3.10
2018-01-20T00:28:17.844Z,3.33
2018-01-20T00:29:19.252Z,3.28
2018-01-20T00:30:20.648Z,3.33
2018-01-20T00:31:22.057Z,3.40
2018-01-20T00:32:23.464Z,3.28
2018-01-20T00:33:24.883Z,3.33
2018-01-20T00:34:26.294Z,3.39
2018-01-20T00:35:27.714Z,3.39
2018-01-20T00:36:29.125Z,3.36
2018-01-20T00:37:30.540Z,3.43
2018-01-20T00:38:31.946Z,3.31
2018-01-20T00:39:33.355Z,3.43
2018-01-20T00:40:34.765Z,3.39
2018-01-20T00:41:36.266Z,3.21
2018-01-20T00:42:37.664Z,3.34
2018-01-20T00:43:39.082Z,3.24
2018-01-20T00:44:40.488Z,3.46
2018-01-20T00:45:41.895Z,3.46
2018-01-20T00:46:43.313Z,3.36
2018-01-20T00:47:44.729Z,3.40
2018-01-20T00:48:46.142Z,3.40
2018-01-20T00:49:47.548Z,3.34
2018-01-20T00:50:48.963Z,3.40
2018-01-20T00:51:50.375Z,3.36
2018-01-20T00:52:51.793Z,3.40
2018-01-20T00:53:53.209Z,3.47
2018-01-20T00:54:54.617Z,3.47
2018-01-20T00:55:56.019Z,3.34
2018-01-20T00:56:57.446Z,3.33
2018-01-20T00:57:58.859Z,3.31
2018-01-20T00:59:00.278Z,3.30
2018-01-20T01:00:01.695Z,3.34
2018-01-20T01:01:03.102Z,3.27
2018-01-20T01:02:04.513Z,3.33
2018-01-20T01:03:05.927Z,3.18
2018-01-20T01:04:07.337Z,3.23
2018-01-20T01:05:08.736Z,3.31
2018-01-20T01:06:10.147Z,3.31
2018-01-20T01:07:11.567Z,3.39
2018-01-20T01:08:12.975Z,3.40
2018-01-20T01:09:14.387Z,3.43
2018-01-20T01:10:15.799Z,3.42
2018-01-20T01:11:17.202Z,3.24
2018-01-20T01:12:18.614Z,3.28
2018-01-20T01:13:20.022Z,3.23
2018-01-20T01:14:21.431Z,3.24
2018-01-20T01:15:22.886Z,3.24
2018-01-20T01:16:24.249Z,3.30
2018-01-20T01:17:25.661Z,3.13
2018-01-20T01:18:27.069Z,3.20
2018-01-20T01:19:28.486Z,3.21
2018-01-20T01:20:29.888Z,3.06
2018-01-20T01:21:31.297Z,3.02
2018-01-20T01:22:32.707Z,3.09
2018-01-20T01:23:34.115Z,2.94
2018-01-20T01:24:35.532Z,2.97
2018-01-20T01:25:36.940Z,2.91
2018-01-20T01:26:38.347Z,2.81
2018-01-20T01:27:39.758Z,2.67
2018-01-20T01:28:41.161Z,2.71
2018-01-20T01:29:42.573Z,2.63
2018-01-20T01:30:43.984Z,2.64
2018-01-20T01:31:45.401Z,2.51
2018-01-20T01:32:46.808Z,2.37
2018-01-20T01:33:48.225Z,2.53
2018-01-20T01:34:49.635Z,2.64
2018-01-20T01:35:51.040Z,2.53
2018-01-20T01:36:52.448Z,2.56
2018-01-20T01:37:53.873Z,2.63
2018-01-20T01:38:55.299Z,2.48
2018-01-20T01:39:56.710Z,2.31
2018-01-20T01:40:58.113Z,2.30
2018-01-20T01:41:59.530Z,2.19
2018-01-20T01:43:00.943Z,2.06
2018-01-20T01:44:02.348Z,2.01
2018-01-20T01:45:03.758Z,2.10
2018-01-20T01:46:05.164Z,2.16
2018-01-20T01:47:06.573Z,2.19
2018-01-20T01:48:07.977Z,2.02
2018-01-20T01:49:09.388Z,1.97
2018-01-20T01:50:10.804Z,1.83
2018-01-20T01:51:12.217Z,1.79
2018-01-20T01:52:13.644Z,1.79
2018-01-20T01:53:15.060Z,1.76
2018-01-20T01:54:16.473Z,1.80
2018-01-20T01:55:17.876Z,1.78
2018-01-20T01:56:19.293Z,1.87
2018-01-20T01:57:20.712Z,1.98
2018-01-20T01:58:22.116Z,1.76
2018-01-20T01:59:23.536Z,1.79
2018-01-20T02:00:24.940Z,1.83
2018-01-20T02:01:26.352Z,1.97
2018-01-20T02:02:27.766Z,1.83
2018-01-20T02:03:29.167Z,1.82
2018-01-20T02:04:30.574Z,1.83
2018-01-20T02:05:31.984Z,2.06
2018-01-20T02:06:33.392Z,1.91
2018-01-20T02:07:34.797Z,1.94
2018-01-20T02:08:36.199Z,1.97
2018-01-20T02:09:37.609Z,1.80
2018-01-20T02:10:39.026Z,1.80
2018-01-20T02:11:40.423Z,1.78
2018-01-20T02:12:41.835Z,1.68
2018-01-20T02:13:43.246Z,1.76
2018-01-20T02:14:44.641Z,1.94
2018-01-20T02:15:46.062Z,2.01
2018-01-20T02:16:47.469Z,1.93
2018-01-20T02:17:48.881Z,1.91
2018-01-20T02:18:50.288Z,1.99
2018-01-20T02:19:51.701Z,1.80
2018-01-20T02:20:53.121Z,1.93
2018-01-20T02:21:54.528Z,1.82
2018-01-20T02:22:55.928Z,1.82
2018-01-20T02:23:57.332Z,1.80
2018-01-20T02:24:58.746Z,1.89
2018-01-20T02:26:00.160Z,1.98
2018-01-20T02:27:01.578Z,1.98
2018-01-20T02:28:02.984Z,2.04
2018-01-20T02:29:04.390Z,1.97
2018-01-20T02:30:05.806Z,2.04
2018-01-20T02:31:07.205Z,2.01
2018-01-20T02:32:08.606Z,2.04
2018-01-20T02:33:10.024Z,1.93
2018-01-20T02:34:11.430Z,1.93
2018-01-20T02:35:12.849Z,2.01
2018-01-20T02:36:14.257Z,2.16
2018-01-20T02:37:15.669Z,1.94
2018-01-20T02:38:17.111Z,1.97
2018-01-20T02:39:18.515Z,2.06
2018-01-20T02:40:19.926Z,2.16
2018-01-20T02:41:21.334Z,2.02
2018-01-20T02:42:22.750Z,2.04
2018-01-20T02:43:24.146Z,2.01
2018-01-20T02:44:25.555Z,2.02
2018-01-20T02:45:26.961Z,1.93
2018-01-20T02:46:28.358Z,1.99
2018-01-20T02:47:29.764Z,2.01
2018-01-20T02:48:31.190Z,1.99
2018-01-20T02:49:32.597Z,2.22
2018-01-20T02:50:34.008Z,2.16
2018-01-20T02:51:35.427Z,2.28
2018-01-20T02:52:36.833Z,2.28
2018-01-20T02:53:38.246Z,2.20
2018-01-20T02:54:39.657Z,2.15
2018-01-20T02:55:41.065Z,2.10
2018-01-20T02:56:42.471Z,2.13
2018-01-20T02:57:43.873Z,2.02
2018-01-20T02:58:45.268Z,2.27
2018-01-20T02:59:46.678Z,2.33
2018-01-20T03:00:48.092Z,2.33
2018-01-20T03:01:49.506Z,2.16
2018-01-20T03:02:50.908Z,2.26
2018-01-20T03:03:52.326Z,2.15
2018-01-20T03:04:53.726Z,2.23
2018-01-20T03:05:55.138Z,2.31
2018-01-20T03:06:56.548Z,2.30
2018-01-20T03:07:57.964Z,2.26
2018-01-20T03:08:59.374Z,2.35
2018-01-20T03:10:00.781Z,2.34
2018-01-20T03:11:02.190Z,2.19
2018-01-20T03:12:03.601Z,2.19
2018-01-20T03:13:05.011Z,2.16
2018-01-20T03:14:06.423Z,2.23
2018-01-20T03:15:07.833Z,2.30
2018-01-20T03:16:09.239Z,2.27
2018-01-20T03:17:10.658Z,2.44
2018-01-20T03:18:12.070Z,2.49
2018-01-20T03:19:13.466Z,2.45
2018-01-20T03:20:14.871Z,2.37
2018-01-20T03:21:16.280Z,2.48
2018-01-20T03:22:17.689Z,2.46
2018-01-20T03:23:19.108Z,2.27
2018-01-20T03:24:20.641Z,2.48
2018-01-20T03:25:22.045Z,2.44
2018-01-20T03:26:23.448Z,2.33
2018-01-20T03:27:24.854Z,2.34
2018-01-20T03:28:26.264Z,2.34
2018-01-20T03:29:27.663Z,2.46
2018-01-20T03:30:29.086Z,2.55
2018-01-20T03:31:30.485Z,2.33
2018-01-20T03:32:31.895Z,2.44
2018-01-20T03:33:33.303Z,2.44
2018-01-20T03:34:34.716Z,2.44
2018-01-20T03:35:36.128Z,2.35
2018-01-20T03:36:37.538Z,2.41
2018-01-20T03:37:38.955Z,2.58
2018-01-20T03:38:40.398Z,2.52
2018-01-20T03:39:41.772Z,2.38
2018-01-20T03:40:43.184Z,2.48
2018-01-20T03:41:45.353Z,2.49
2018-01-20T03:42:45.935Z,2.41
2018-01-20T03:43:47.338Z,2.35
2018-01-20T03:44:48.741Z,2.38
2018-01-20T03:45:50.156Z,2.38
2018-01-20T03:46:51.571Z,2.34
2018-01-20T03:47:52.979Z,2.44
2018-01-20T03:48:54.377Z,2.34
2018-01-20T03:49:55.782Z,2.40
2018-01-20T03:50:57.192Z,2.23
2018-01-20T03:51:58.608Z,2.41
2018-01-20T03:53:00.011Z,2.38
2018-01-20T03:54:01.412Z,2.33
2018-01-20T03:55:02.831Z,2.31
2018-01-20T03:56:04.247Z,2.17
2018-01-20T03:57:05.656Z,2.20
2018-01-20T03:58:07.062Z,2.40
2018-01-20T03:59:08.468Z,2.37
2018-01-20T04:00:09.873Z,2.41
2018-01-20T04:01:11.296Z,2.46
2018-01-20T04:02:12.716Z,2.45
2018-01-20T04:03:14.126Z,2.38
2018-01-20T04:04:15.531Z,2.34
2018-01-20T04:05:16.940Z,2.35
2018-01-20T04:06:18.347Z,2.31
2018-01-20T04:07:19.754Z,2.48
2018-01-20T04:08:21.182Z,2.37
2018-01-20T04:09:22.592Z,2.33
2018-01-20T04:10:24.001Z,2.35
2018-01-20T04:11:25.404Z,2.20
2018-01-20T04:12:26.812Z,2.22
2018-01-20T04:13:28.216Z,2.27
2018-01-20T04:14:29.622Z,2.27
2018-01-20T04:15:31.028Z,2.23
2018-01-20T04:16:32.441Z,2.27
2018-01-20T04:17:33.856Z,2.30
2018-01-20T04:18:35.265Z,2.27
2018-01-20T04:19:36.665Z,2.37
2018-01-20T04:20:38.072Z,2.33
2018-01-20T04:21:39.482Z,2.40
2018-01-20T04:22:40.894Z,2.33
2018-01-20T04:23:42.349Z,2.35
2018-01-20T04:24:43.704Z,2.34
2018-01-20T04:25:45.112Z,2.40
2018-01-20T04:26:46.524Z,2.46
2018-01-20T04:27:47.936Z,2.41
2018-01-20T04:28:49.339Z,2.45
2018-01-20T04:29:50.750Z,2.49
2018-01-20T04:30:52.165Z,2.67
2018-01-20T04:31:53.582Z,2.77
2018-01-20T04:32:54.982Z,2.58
2018-01-20T04:33:56.391Z,2.55
2018-01-20T04:34:57.797Z,2.55
2018-01-20T04:35:59.207Z,2.52
2018-01-20T04:37:00.631Z,2.55
2018-01-20T04:38:02.048Z,2.45
2018-01-20T04:39:03.445Z,2.53
2018-01-20T04:40:04.851Z,2.53
2018-01-20T04:41:06.253Z,2.56
2018-01-20T04:42:07.661Z,2.48
2018-01-20T04:43:09.069Z,2.53
2018-01-20T04:44:10.468Z,2.61
2018-01-20T04:45:11.875Z,2.56
2018-01-20T04:46:13.323Z,2.51
2018-01-20T04:47:14.726Z,2.64
2018-01-20T04:48:16.142Z,2.56
2018-01-20T04:49:17.552Z,2.69
2018-01-20T04:50:18.962Z,2.58
2018-01-20T04:51:20.372Z,2.66
2018-01-20T04:52:21.767Z,2.64
2018-01-20T04:53:23.285Z,2.81
2018-01-20T04:54:24.689Z,2.70
2018-01-20T04:55:26.097Z,2.71
2018-01-20T04:56:27.501Z,2.67
2018-01-20T04:57:28.909Z,2.69
2018-01-20T04:58:30.316Z,2.69
2018-01-20T04:59:31.725Z,2.70
2018-01-20T05:00:33.141Z,2.69
2018-01-20T05:01:34.554Z,2.87
2018-01-20T05:02:35.957Z,2.71
2018-01-20T05:03:37.365Z,2.71
2018-01-20T05:04:38.775Z,2.79
2018-01-20T05:05:40.191Z,2.88
2018-01-20T05:06:41.608Z,2.89
2018-01-20T05:07:43.019Z,2.79
2018-01-20T05:08:44.426Z,2.81
2018-01-20T05:09:45.838Z,2.74
2018-01-20T05:10:47.236Z,2.74
2018-01-20T05:11:48.646Z,2.94
2018-01-20T05:12:50.042Z,2.91
2018-01-20T05:13:51.452Z,2.82
2018-01-20T05:14:52.829Z,2.77
2018-01-20T05:15:54.230Z,2.95
2018-01-20T05:16:55.644Z,3.02
2018-01-20T05:17:57.056Z,2.94
2018-01-20T05:18:58.469Z,3.03
2018-01-20T05:19:59.873Z,3.05
2018-01-20T05:21:01.282Z,2.98
2018-01-20T05:22:02.683Z,3.10
2018-01-20T05:23:04.088Z,3.07
2018-01-20T05:24:05.498Z,3.07
2018-01-20T05:25:06.902Z,3.03
2018-01-20T05:26:08.307Z,3.07
2018-01-20T05:27:09.714Z,3.12
2018-01-20T05:28:11.125Z,3.15
2018-01-20T05:29:12.533Z,2.94
2018-01-20T05:30:13.933Z,3.09
2018-01-20T05:31:15.342Z,3.10
2018-01-20T05:32:16.756Z,3.07
2018-01-20T05:33:18.151Z,2.95
2018-01-20T05:34:19.559Z,2.98
2018-01-20T05:35:20.971Z,2.95
2018-01-20T05:36:22.386Z,3.06
2018-01-20T05:37:23.799Z,3.06
2018-01-20T05:38:25.202Z,2.98
2018-01-20T05:39:26.613Z,3.10
2018-01-20T05:40:28.022Z,3.09
2018-01-20T05:41:29.429Z,3.25
2018-01-20T05:42:30.839Z,3.10
2018-01-20T05:43:32.242Z,3.15
2018-01-20T05:44:33.648Z,3.20
2018-01-20T05:45:35.053Z,3.24
2018-01-20T05:46:36.469Z,3.07
2018-01-20T05:47:37.885Z,3.07
2018-01-20T05:48:39.285Z,3.21
2018-01-20T05:49:40.687Z,3.21
2018-01-20T05:50:43.181Z,3.06
2018-01-20T05:51:44.601Z,3.12
2018-01-20T05:52:46.003Z,3.30
2018-01-20T05:53:47.434Z,3.21
2018-01-20T05:54:48.842Z,3.25
2018-01-20T05:55:50.253Z,3.20
2018-01-20T05:56:51.663Z,3.24
2018-01-20T05:57:53.066Z,3.18
2018-01-20T05:58:54.487Z,3.18
2018-01-20T05:59:55.892Z,3.10
2018-01-20T06:00:57.297Z,3.13
2018-01-20T06:01:58.709Z,3.09
2018-01-20T06:03:00.103Z,3.18
2018-01-20T06:04:02.023Z,3.00
2018-01-20T06:05:03.435Z,3.02
2018-01-20T06:06:04.835Z,3.00
2018-01-20T06:07:06.243Z,3.02
2018-01-20T06:08:07.657Z,3.02
2018-01-20T06:09:09.066Z,2.98
2018-01-20T06:10:10.483Z,3.02
2018-01-20T06:11:11.895Z,2.98
2018-01-20T06:12:13.300Z,2.92
2018-01-20T06:13:14.711Z,2.98
2018-01-20T06:14:16.117Z,3.09
2018-01-20T06:15:17.528Z,3.10
2018-01-20T06:16:19.069Z,3.20
2018-01-20T06:17:20.478Z,2.97
2018-01-20T06:18:21.900Z,3.13
2018-01-20T06:19:23.296Z,3.10
2018-01-20T06:20:24.713Z,2.98
2018-01-20T06:21:26.112Z,3.06
2018-01-20T06:22:27.520Z,3.05
2018-01-20T06:23:28.929Z,3.03
2018-01-20T06:24:30.335Z,3.15
2018-01-20T06:25:31.740Z,2.97
2018-01-20T06:26:33.156Z,2.91
2018-01-20T06:27:34.577Z,2.95
2018-01-20T06:28:35.980Z,3.00
2018-01-20T06:29:37.384Z,3.09
2018-01-20T06:30:38.792Z,3.00
2018-01-20T06:31:40.202Z,2.91
2018-01-20T06:32:41.615Z,2.97
2018-01-20T06:33:43.041Z,3.03
2018-01-20T06:34:44.425Z,2.98
2018-01-20T06:35:45.831Z,3.09
2018-01-20T06:36:47.258Z,3.07
2018-01-20T06:37:48.662Z,3.12
2018-01-20T06:38:50.074Z,3.13
2018-01-20T06:39:51.474Z,3.27
2018-01-20T06:40:52.886Z,3.10
2018-01-20T06:41:54.307Z,3.15
2018-01-20T06:42:55.711Z,3.09
2018-01-20T06:43:57.123Z,3.10
2018-01-20T06:44:58.532Z,3.13
2018-01-20T06:45:59.944Z,3.09
2018-01-20T06:47:01.351Z,3.18
2018-01-20T06:48:02.762Z,3.12
2018-01-20T06:49:04.176Z,3.12
2018-01-20T06:50:05.574Z,3.28
2018-01-20T06:51:06.988Z,3.03
2018-01-20T06:52:08.394Z,2.95
2018-01-20T06:53:09.803Z,2.97
2018-01-20T06:54:11.216Z,2.92
2018-01-20T06:55:12.623Z,2.81
2018-01-20T06:56:14.030Z,2.94
2018-01-20T06:57:15.436Z,3.03
2018-01-20T06:58:16.844Z,3.03
2018-01-20T06:59:18.250Z,2.92
2018-01-20T07:00:19.671Z,2.95
2018-01-20T07:01:21.079Z,3.02
2018-01-20T07:02:22.487Z,3.02
2018-01-20T07:03:23.901Z,2.89
2018-01-20T07:04:25.307Z,3.05
2018-01-20T07:05:26.707Z,2.98
2018-01-20T07:06:28.127Z,3.00
2018-01-20T07:07:29.536Z,2.98
2018-01-20T07:08:30.954Z,2.98
2018-01-20T07:09:32.362Z,3.02
2018-01-20T07:10:33.769Z,2.94
2018-01-20T07:11:35.178Z,2.81
2018-01-20T07:12:36.584Z,2.97
2018-01-20T07:13:38.000Z,2.94
2018-01-20T07:14:39.401Z,3.00
2018-01-20T07:15:40.806Z,2.94
2018-01-20T07:16:42.346Z,2.89
2018-01-20T07:17:43.767Z,3.09
2018-01-20T07:18:45.180Z,3.10
2018-01-20T07:19:46.582Z,3.13
2018-01-20T07:20:47.984Z,3.20
2018-01-20T07:21:49.393Z,3.15
2018-01-20T07:22:50.811Z,3.16
2018-01-20T07:23:52.223Z,3.21
2018-01-20T07:24:53.633Z,3.24
2018-01-20T07:25:55.032Z,3.09
2018-01-20T07:26:56.433Z,3.31
2018-01-20T07:27:57.840Z,3.34
2018-01-20T07:28:59.248Z,3.34
2018-01-20T07:30:00.777Z,3.23
2018-01-20T07:31:02.185Z,3.36
2018-01-20T07:32:03.600Z,3.40
2018-01-20T07:33:05.013Z,3.28
2018-01-20T07:34:06.418Z,3.24
2018-01-20T07:35:07.830Z,3.23
2018-01-20T07:36:09.243Z,3.16
2018-01-20T07:37:10.714Z,3.16
2018-01-20T07:38:12.129Z,3.27
2018-01-20T07:39:13.989Z,3.33
2018-01-20T07:40:15.391Z,3.27
2018-01-20T07:41:16.806Z,3.16
2018-01-20T07:42:18.219Z,3.05
2018-01-20T07:43:19.635Z,2.94
2018-01-20T07:44:21.045Z,3.27
2018-01-20T07:45:22.454Z,3.25
2018-01-20T07:46:23.863Z,3.27
2018-01-20T07:47:25.276Z,3.25
2018-01-20T07:48:26.685Z,3.16
2018-01-20T07:49:28.087Z,3.40
2018-01-20T07:50:29.494Z,3.28
2018-01-20T07:51:30.909Z,3.23
2018-01-20T07:52:32.312Z,3.27
2018-01-20T07:53:33.719Z,3.34
2018-01-20T07:54:35.139Z,3.25
2018-01-20T07:55:36.545Z,3.31
2018-01-20T07:56:37.963Z,3.40
2018-01-20T07:57:39.375Z,3.39
2018-01-20T07:58:40.786Z,3.40
2018-01-20T07:59:42.204Z,3.34
2018-01-20T08:00:43.616Z,3.47
2018-01-20T08:01:45.016Z,3.49
2018-01-20T08:02:46.422Z,3.39
2018-01-20T08:03:47.832Z,3.40
2018-01-20T08:04:49.249Z,3.36
2018-01-20T08:05:50.648Z,3.40
2018-01-20T08:06:52.081Z,3.34
2018-01-20T08:07:53.505Z,3.52
2018-01-20T08:08:54.908Z,3.42
2018-01-20T08:09:56.321Z,3.47
2018-01-20T08:10:57.728Z,3.42
2018-01-20T08:11:59.141Z,3.57
2018-01-20T08:13:00.557Z,3.43
2018-01-20T08:14:01.961Z,3.46
2018-01-20T08:15:03.365Z,3.47
2018-01-20T08:16:04.775Z,3.42
2018-01-20T08:17:06.181Z,3.50
2018-01-20T08:18:07.608Z,3.46
2018-01-20T08:19:09.018Z,3.53
2018-01-20T08:20:10.424Z,3.57
2018-01-20T08:21:11.839Z,3.57
2018-01-20T08:22:13.249Z,3.57
2018-01-20T08:23:14.659Z,3.52
2018-01-20T08:24:16.081Z,3.57
2018-01-20T08:25:17.494Z,3.53
2018-01-20T08:26:18.910Z,3.57
2018-01-20T08:27:20.323Z,3.61
2018-01-20T08:28:21.742Z,3.76
2018-01-20T08:29:23.147Z,4.06
2018-01-20T08:30:24.568Z,4.07
2018-01-20T08:31:25.977Z,4.01
2018-01-20T08:32:27.382Z,4.08
2018-01-20T08:33:28.794Z,3.86
2018-01-20T08:34:30.214Z,3.62
2018-01-20T08:35:31.619Z,3.72
2018-01-20T08:36:33.047Z,3.70
2018-01-20T08:37:34.570Z,3.76
2018-01-20T08:38:35.982Z,3.65
2018-01-20T08:39:37.406Z,3.75
2018-01-20T08:40:38.817Z,3.79
2018-01-20T08:41:40.235Z,3.67
2018-01-20T08:42:41.642Z,3.67
2018-01-20T08:43:43.057Z,3.72
2018-01-20T08:44:44.471Z,3.83
2018-01-20T08:45:45.880Z,3.70
2018-01-20T08:46:47.285Z,3.79
2018-01-20T08:47:48.696Z,3.71
2018-01-20T08:48:50.116Z,3.86
2018-01-20T08:49:51.536Z,4.01
2018-01-20T08:50:52.956Z,4.07
2018-01-20T08:51:54.368Z,4.10
2018-01-20T08:52:55.778Z,4.03
2018-01-20T08:53:57.189Z,4.15
2018-01-20T08:54:58.607Z,3.82
2018-01-20T08:56:00.016Z,3.80
2018-01-20T08:57:02.113Z,3.85
2018-01-20T08:58:03.525Z,3.80
2018-01-20T08:59:04.960Z,4.00
2018-01-20T09:00:06.367Z,3.94
2018-01-20T09:01:07.777Z,4.00
2018-01-20T09:02:09.197Z,3.85
2018-01-20T09:03:10.607Z,3.83
2018-01-20T09:04:12.026Z,3.90
2018-01-20T09:05:13.450Z,3.94
2018-01-20T09:06:14.856Z,3.98
2018-01-20T09:07:16.268Z,3.97
2018-01-20T09:08:17.679Z,4.04
2018-01-20T09:09:19.088Z,3.78
2018-01-20T09:10:20.492Z,3.78
2018-01-20T09:11:21.901Z,3.86
2018-01-20T09:12:23.308Z,3.85
2018-01-20T09:13:24.725Z,3.88
2018-01-20T09:14:26.209Z,3.96
2018-01-20T09:15:27.623Z,4.04
2018-01-20T09:16:29.048Z,3.94
2018-01-20T09:17:30.464Z,3.94
2018-01-20T09:18:31.903Z,3.96
2018-01-20T09:19:33.317Z,4.04
2018-01-20T09:20:34.719Z,4.12
2018-01-20T09:21:36.146Z,4.07
2018-01-20T09:22:37.561Z,3.83
2018-01-20T09:23:38.971Z,4.19
2018-01-20T09:24:40.388Z,4.01
2018-01-20T09:25:41.805Z,4.03
2018-01-20T09:26:43.225Z,4.07
2018-01-20T09:27:44.642Z,4.01
2018-01-20T09:28:46.050Z,4.16
2018-01-20T09:29:47.474Z,4.06
2018-01-20T09:30:48.879Z,4.19
2018-01-20T09:31:50.290Z,4.14
2018-01-20T09:32:51.699Z,4.07
2018-01-20T09:33:53.111Z,4.14
2018-01-20T09:34:54.523Z,4.04
2018-01-20T09:35:55.936Z,3.97
2018-01-20T09:36:57.361Z,4.14
2018-01-20T09:37:58.777Z,4.18
2018-01-20T09:39:00.190Z,4.08
2018-01-20T09:40:01.607Z,4.14
2018-01-20T09:41:03.024Z,4.08
2018-01-20T09:42:04.444Z,4.25
2018-01-20T09:43:05.844Z,4.14
2018-01-20T09:44:07.264Z,4.18
2018-01-20T09:45:08.673Z,4.26
2018-01-20T09:46:11.208Z,4.22
2018-01-20T09:47:12.624Z,4.25
2018-01-20T09:48:14.046Z,4.22
2018-01-20T09:49:15.460Z,4.21
2018-01-20T09:50:16.879Z,4.33
2018-01-20T09:51:18.292Z,4.32
2018-01-20T09:52:21.199Z,4.24
2018-01-20T09:53:22.605Z,4.28
2018-01-20T09:54:24.016Z,4.37
2018-01-20T09:55:25.438Z,4.36
2018-01-20T09:56:26.863Z,4.36
2018-01-20T09:57:28.277Z,4.37
2018-01-20T09:58:29.690Z,4.33
2018-01-20T09:59:31.106Z,4.46
2018-01-20T10:00:32.519Z,4.34
2018-01-20T10:01:33.952Z,4.34
2018-01-20T10:02:35.393Z,4.34
2018-01-20T10:03:37.341Z,4.34
2018-01-20T10:04:38.750Z,4.43
2018-01-20T10:05:40.163Z,4.39
2018-01-20T10:06:41.594Z,4.37
2018-01-20T10:07:43.006Z,4.62
2018-01-20T10:08:44.415Z,4.46
2018-01-20T10:09:45.833Z,4.39
2018-01-20T10:10:47.266Z,4.50
2018-01-20T10:11:48.679Z,4.47
2018-01-20T10:12:50.088Z,4.65
2018-01-20T10:13:51.505Z,4.69
2018-01-20T10:14:52.911Z,4.65
2018-01-20T10:15:54.320Z,4.67
2018-01-20T10:16:55.734Z,4.70
2018-01-20T10:17:57.153Z,4.67
2018-01-20T10:18:58.567Z,4.51
2018-01-20T10:19:59.967Z,4.51
2018-01-20T10:21:01.387Z,4.46
2018-01-20T10:22:02.801Z,4.54
2018-01-20T10:23:04.216Z,4.58
2018-01-20T10:24:05.618Z,4.65
2018-01-20T10:25:07.035Z,4.73
2018-01-20T10:26:08.447Z,4.75
2018-01-20T10:27:09.869Z,4.65
2018-01-20T10:28:11.263Z,4.59
2018-01-20T10:29:12.674Z,4.55
2018-01-20T10:30:14.111Z,4.54
2018-01-20T10:31:15.516Z,4.58
2018-01-20T10:32:16.933Z,4.69
2018-01-20T10:33:18.354Z,4.54
2018-01-20T10:34:19.771Z,4.51
2018-01-20T10:35:21.187Z,4.59
2018-01-20T10:36:22.605Z,4.51
2018-01-20T10:37:24.028Z,4.47
2018-01-20T10:38:25.439Z,4.54
2018-01-20T10:39:26.899Z,4.64
2018-01-20T10:40:28.322Z,4.50
2018-01-20T10:41:29.784Z,4.61
2018-01-20T10:42:31.150Z,4.69
2018-01-20T10:43:32.579Z,4.76
2018-01-20T10:44:34.001Z,4.70
2018-01-20T10:45:35.417Z,4.86
2018-01-20T10:46:36.839Z,4.72
2018-01-20T10:47:38.258Z,4.72
2018-01-20T10:48:39.676Z,4.73
2018-01-20T10:49:41.097Z,4.73
2018-01-20T10:50:42.512Z,4.76
2018-01-20T10:51:43.935Z,4.76
2018-01-20T10:52:45.346Z,4.91
2018-01-20T10:53:46.759Z,4.86
2018-01-20T10:54:48.176Z,4.79
2018-01-20T10:55:49.622Z,4.79
2018-01-20T10:56:51.054Z,4.79
2018-01-20T10:57:52.463Z,4.73
2018-01-20T10:58:53.879Z,4.83
2018-01-20T10:59:55.293Z,4.73
2018-01-20T11:00:56.713Z,4.88
2018-01-20T11:01:58.129Z,4.76
2018-01-20T11:02:59.544Z,4.86
2018-01-20T11:04:00.957Z,4.70
2018-01-20T11:05:02.372Z,4.86
2018-01-20T11:06:03.781Z,4.73
2018-01-20T11:07:05.192Z,4.70
2018-01-20T11:08:06.627Z,4.84
2018-01-20T11:09:08.041Z,4.89
2018-01-20T11:10:09.465Z,4.79
2018-01-20T11:11:10.899Z,4.80
2018-01-20T11:12:12.304Z,4.94
2018-01-20T11:13:13.715Z,4.84
2018-01-20T11:14:15.138Z,4.75
2018-01-20T11:15:16.565Z,4.70
2018-01-20T11:16:17.979Z,4.73
2018-01-20T11:17:19.401Z,4.73
2018-01-20T11:18:20.809Z,4.80
2018-01-20T11:19:22.221Z,4.80
2018-01-20T11:20:23.636Z,4.79
2018-01-20T11:21:25.046Z,4.73
2018-01-20T11:22:26.469Z,4.65
2018-01-20T11:23:27.884Z,4.73
2018-01-20T11:24:29.315Z,4.79
2018-01-20T11:25:30.736Z,4.84
2018-01-20T11:26:32.170Z,4.94
2018-01-20T11:27:33.572Z,4.89
2018-01-20T11:28:34.984Z,4.96
2018-01-20T11:29:36.398Z,4.86
2018-01-20T11:30:37.825Z,4.84
2018-01-20T11:31:39.239Z,4.94
2018-01-20T11:32:40.648Z,4.91
2018-01-20T11:33:42.060Z,4.83
2018-01-20T11:34:43.489Z,4.80
2018-01-20T11:35:44.918Z,4.92
2018-01-20T11:36:46.344Z,5.02
2018-01-20T11:37:47.780Z,4.94
2018-01-20T11:38:49.190Z,5.01
2018-01-20T11:39:50.603Z,5.02
2018-01-20T11:40:52.017Z,4.89
2018-01-20T11:41:53.440Z,5.04
2018-01-20T11:42:54.849Z,4.88
2018-01-20T11:43:56.263Z,4.92
2018-01-20T11:44:57.687Z,5.07
2018-01-20T11:45:59.101Z,5.09
2018-01-20T11:47:00.516Z,5.04
2018-01-20T11:48:01.931Z,5.09
2018-01-20T11:49:03.339Z,5.04
2018-01-20T11:50:04.751Z,4.98
2018-01-20T11:51:06.172Z,4.89
2018-01-20T11:52:07.589Z,4.98
2018-01-20T11:53:09.001Z,5.13
2018-01-20T11:54:10.415Z,4.99
2018-01-20T11:55:11.820Z,4.96
2018-01-20T11:56:13.242Z,5.09
2018-01-20T11:57:14.663Z,5.07
2018-01-20T11:58:16.078Z,4.95
2018-01-20T11:59:17.495Z,5.05
2018-01-20T12:00:18.921Z,5.05
2018-01-20T12:01:20.334Z,5.04
2018-01-20T12:02:21.810Z,5.13
2018-01-20T12:03:23.216Z,5.04
2018-01-20T12:04:24.631Z,5.04
2018-01-20T12:05:26.059Z,4.91
2018-01-20T12:06:27.470Z,5.04
2018-01-20T12:07:28.916Z,5.10
2018-01-20T12:18:46.452Z,5.12
2018-01-20T12:19:47.875Z,4.96
2018-01-20T12:20:49.282Z,4.91
2018-01-20T12:21:50.696Z,4.94
2018-01-20T12:22:52.098Z,5.19
2018-01-20T12:23:53.508Z,5.10
2018-01-20T12:24:54.913Z,5.09
2018-01-20T12:25:56.318Z,5.09
2018-01-20T12:26:57.727Z,5.05
2018-01-20T12:27:59.141Z,5.12
2018-01-20T12:29:00.547Z,5.34
2018-01-20T12:30:01.956Z,5.32
2018-01-20T12:31:03.377Z,5.12
2018-01-20T12:32:04.782Z,5.12
2018-01-20T12:33:06.208Z,5.07
2018-01-20T12:34:07.615Z,5.02
2018-01-20T12:35:09.028Z,5.22
2018-01-20T12:36:10.428Z,5.07
2018-01-20T12:37:11.836Z,5.19
2018-01-20T12:38:13.245Z,5.01
2018-01-20T12:39:14.659Z,5.04
2018-01-20T12:40:16.072Z,5.05
2018-01-20T12:41:17.478Z,5.07
2018-01-20T12:42:18.894Z,5.16
2018-01-20T12:43:20.386Z,5.07
2018-01-20T12:44:21.796Z,5.07
2018-01-20T12:45:23.208Z,5.02
2018-01-20T12:46:24.583Z,4.98
2018-01-20T12:47:25.981Z,5.04
2018-01-20T12:48:27.438Z,5.12
2018-01-20T12:49:28.803Z,5.07
2018-01-20T12:50:30.212Z,5.09
2018-01-20T12:51:31.629Z,5.14
2018-01-20T12:52:33.047Z,5.12
2018-01-20T12:53:34.455Z,5.04
2018-01-20T12:54:35.865Z,5.07
2018-01-20T12:55:37.282Z,4.99
2018-01-20T12:56:38.683Z,5.01
2018-01-20T12:57:40.098Z,5.07
2018-01-20T12:58:41.512Z,4.99
2018-01-20T12:59:42.920Z,4.99
2018-01-20T13:00:44.334Z,5.05
2018-01-20T13:01:45.752Z,5.17
2018-01-20T13:02:47.156Z,4.99
2018-01-20T13:03:48.564Z,5.01
2018-01-20T13:04:49.972Z,5.05
2018-01-20T13:05:51.381Z,4.95
2018-01-20T13:06:52.793Z,5.02
2018-01-20T13:07:54.212Z,5.05
2018-01-20T13:08:55.625Z,4.99
2018-01-20T13:09:57.035Z,5.02
2018-01-20T13:10:58.449Z,4.91
2018-01-20T13:11:59.852Z,5.01
2018-01-20T13:13:01.270Z,4.98
2018-01-20T13:14:02.688Z,4.98
2018-01-20T13:15:04.094Z,5.02
2018-01-20T13:16:05.500Z,4.84
2018-01-20T13:17:06.914Z,5.02
2018-01-20T13:18:08.352Z,5.02
2018-01-20T13:19:09.757Z,5.02
2018-01-20T13:20:11.167Z,4.94
2018-01-20T13:21:12.579Z,5.04
2018-01-20T13:22:13.990Z,5.02
2018-01-20T13:23:15.396Z,4.92
2018-01-20T13:24:16.801Z,5.02
2018-01-20T13:25:18.264Z,4.89
2018-01-20T13:26:19.627Z,4.98
2018-01-20T13:27:21.036Z,4.83
2018-01-20T13:28:22.456Z,4.73
2018-01-20T13:29:23.866Z,4.73
2018-01-20T13:30:25.280Z,4.88
2018-01-20T13:31:26.727Z,5.02
2018-01-20T13:32:28.129Z,4.91
2018-01-20T13:33:29.541Z,4.76
2018-01-20T13:34:30.959Z,4.80
2018-01-20T13:35:32.368Z,4.75
2018-01-20T13:36:33.795Z,4.89
2018-01-20T13:37:35.208Z,4.84
2018-01-20T13:38:36.620Z,4.76
2018-01-20T13:39:38.034Z,4.64
2018-01-20T13:40:39.441Z,4.80
2018-01-20T13:41:40.859Z,4.79
2018-01-20T13:42:42.276Z,4.86
2018-01-20T13:43:43.687Z,4.72
2018-01-20T13:44:45.150Z,4.59
2018-01-20T13:45:46.564Z,4.79
2018-01-20T13:46:47.966Z,4.75
2018-01-20T13:47:49.389Z,4.69
2018-01-20T13:48:50.807Z,4.67
2018-01-20T13:49:52.233Z,4.83